sensor_id;sensor_type;location;lat;lon;timestamp;P1;durP1;ratioP1;P2;durP2;ratioP2
20671;SDS011;10495;50.922;4.760;2022-12-01T00:00:40;34.90;;;20.03;;
20671;SDS011;10495;50.922;4.760;2022-12-01T00:03:06;32.70;;;19.33;;
20671;SDS011;10495;50.922;4.760;2022-12-01T00:05:32;30.83;;;19.40;;
20671;SDS011;10495;50.922;4.760;2022-12-01T00:07:59;34.20;;;20.50;;
20671;SDS011;10495;50.922;4.760;2022-12-01T00:10:25;31.07;;;18.40;;
20671;SDS011;10495;50.922;4.760;2022-12-01T00:12:51;29.83;;;19.13;;
20671;SDS011;10495;50.922;4.760;2022-12-01T00:15:17;30.93;;;19.03;;
20671;SDS011;10495;50.922;4.760;2022-12-01T00:17:43;34.13;;;19.27;;
20671;SDS011;10495;50.922;4.760;2022-12-01T00:20:10;27.97;;;17.83;;
20671;SDS011;10495;50.922;4.760;2022-12-01T00:22:36;32.20;;;18.17;;
20671;SDS011;10495;50.922;4.760;2022-12-01T00:25:02;33.07;;;18.27;;
20671;SDS011;10495;50.922;4.760;2022-12-01T00:27:28;30.77;;;18.53;;
20671;SDS011;10495;50.922;4.760;2022-12-01T00:29:54;31.63;;;19.33;;
20671;SDS011;10495;50.922;4.760;2022-12-01T00:32:19;34.13;;;18.97;;
20671;SDS011;10495;50.922;4.760;2022-12-01T00:34:45;31.07;;;18.33;;
20671;SDS011;10495;50.922;4.760;2022-12-01T00:37:10;30.93;;;19.10;;
20671;SDS011;10495;50.922;4.760;2022-12-01T00:39:36;34.37;;;19.10;;
20671;SDS011;10495;50.922;4.760;2022-12-01T00:42:02;27.93;;;17.63;;
20671;SDS011;10495;50.922;4.760;2022-12-01T00:44:27;32.63;;;19.60;;
20671;SDS011;10495;50.922;4.760;2022-12-01T00:46:53;33.57;;;19.50;;
20671;SDS011;10495;50.922;4.760;2022-12-01T00:49:18;30.80;;;17.77;;
20671;SDS011;10495;50.922;4.760;2022-12-01T00:51:44;31.50;;;18.90;;
20671;SDS011;10495;50.922;4.760;2022-12-01T00:54:09;36.17;;;20.00;;
20671;SDS011;10495;50.922;4.760;2022-12-01T00:56:35;31.63;;;19.13;;
20671;SDS011;10495;50.922;4.760;2022-12-01T00:59:00;36.70;;;20.20;;
20671;SDS011;10495;50.922;4.760;2022-12-01T01:01:26;34.87;;;19.63;;
20671;SDS011;10495;50.922;4.760;2022-12-01T01:03:52;31.03;;;18.37;;
20671;SDS011;10495;50.922;4.760;2022-12-01T01:06:17;30.87;;;17.90;;
20671;SDS011;10495;50.922;4.760;2022-12-01T01:08:43;35.37;;;19.77;;
20671;SDS011;10495;50.922;4.760;2022-12-01T01:11:08;30.13;;;19.70;;
20671;SDS011;10495;50.922;4.760;2022-12-01T01:13:34;34.60;;;19.40;;
20671;SDS011;10495;50.922;4.760;2022-12-01T01:16:02;32.70;;;19.07;;
20671;SDS011;10495;50.922;4.760;2022-12-01T01:18:34;31.13;;;19.37;;
20671;SDS011;10495;50.922;4.760;2022-12-01T01:21:01;34.47;;;20.40;;
20671;SDS011;10495;50.922;4.760;2022-12-01T01:23:29;35.50;;;20.90;;
20671;SDS011;10495;50.922;4.760;2022-12-01T01:26:02;31.57;;;19.23;;
20671;SDS011;10495;50.922;4.760;2022-12-01T01:28:29;35.77;;;20.20;;
20671;SDS011;10495;50.922;4.760;2022-12-01T01:30:55;34.73;;;19.83;;
20671;SDS011;10495;50.922;4.760;2022-12-01T01:33:21;32.77;;;19.30;;
20671;SDS011;10495;50.922;4.760;2022-12-01T01:35:47;33.47;;;19.53;;
20671;SDS011;10495;50.922;4.760;2022-12-01T01:38:12;32.87;;;19.40;;
20671;SDS011;10495;50.922;4.760;2022-12-01T01:40:44;32.67;;;20.00;;
20671;SDS011;10495;50.922;4.760;2022-12-01T01:43:14;33.03;;;19.20;;
20671;SDS011;10495;50.922;4.760;2022-12-01T01:45:41;35.37;;;20.53;;
20671;SDS011;10495;50.922;4.760;2022-12-01T01:48:07;34.13;;;19.13;;
20671;SDS011;10495;50.922;4.760;2022-12-01T01:50:35;34.57;;;20.20;;
20671;SDS011;10495;50.922;4.760;2022-12-01T01:53:02;34.20;;;19.77;;
20671;SDS011;10495;50.922;4.760;2022-12-01T01:55:32;33.67;;;19.23;;
20671;SDS011;10495;50.922;4.760;2022-12-01T01:58:00;34.80;;;19.17;;
20671;SDS011;10495;50.922;4.760;2022-12-01T02:00:28;34.93;;;20.03;;
20671;SDS011;10495;50.922;4.760;2022-12-01T02:02:53;32.20;;;18.90;;
20671;SDS011;10495;50.922;4.760;2022-12-01T02:05:22;31.97;;;19.27;;
20671;SDS011;10495;50.922;4.760;2022-12-01T02:07:50;35.00;;;20.00;;
20671;SDS011;10495;50.922;4.760;2022-12-01T02:10:19;31.23;;;19.00;;
20671;SDS011;10495;50.922;4.760;2022-12-01T02:15:19;36.67;;;20.67;;
20671;SDS011;10495;50.922;4.760;2022-12-01T02:21:06;34.27;;;19.20;;
20671;SDS011;10495;50.922;4.760;2022-12-01T02:26:43;34.77;;;19.10;;
20671;SDS011;10495;50.922;4.760;2022-12-01T02:35:05;34.20;;;19.40;;
20671;SDS011;10495;50.922;4.760;2022-12-01T02:38:02;34.23;;;18.97;;
20671;SDS011;10495;50.922;4.760;2022-12-01T02:43:12;33.37;;;18.83;;
20671;SDS011;10495;50.922;4.760;2022-12-01T02:45:49;36.20;;;19.40;;
20671;SDS011;10495;50.922;4.760;2022-12-01T02:48:22;29.47;;;17.07;;
20671;SDS011;10495;50.922;4.760;2022-12-01T02:50:51;34.70;;;18.90;;
20671;SDS011;10495;50.922;4.760;2022-12-01T02:53:20;40.57;;;19.73;;
20671;SDS011;10495;50.922;4.760;2022-12-01T02:55:47;37.10;;;18.90;;
20671;SDS011;10495;50.922;4.760;2022-12-01T02:58:16;33.33;;;19.17;;
20671;SDS011;10495;50.922;4.760;2022-12-01T03:00:57;35.93;;;17.90;;
20671;SDS011;10495;50.922;4.760;2022-12-01T03:04:02;38.50;;;18.97;;
20671;SDS011;10495;50.922;4.760;2022-12-01T03:12:06;32.20;;;17.50;;
20671;SDS011;10495;50.922;4.760;2022-12-01T03:14:56;36.03;;;17.57;;
20671;SDS011;10495;50.922;4.760;2022-12-01T03:17:35;39.63;;;19.63;;
20671;SDS011;10495;50.922;4.760;2022-12-01T03:20:15;35.60;;;19.07;;
20671;SDS011;10495;50.922;4.760;2022-12-01T03:22:47;37.63;;;19.00;;
20671;SDS011;10495;50.922;4.760;2022-12-01T03:25:17;36.80;;;19.53;;
20671;SDS011;10495;50.922;4.760;2022-12-01T03:27:45;33.83;;;18.90;;
20671;SDS011;10495;50.922;4.760;2022-12-01T03:30:13;36.30;;;18.70;;
20671;SDS011;10495;50.922;4.760;2022-12-01T03:32:42;40.40;;;20.13;;
20671;SDS011;10495;50.922;4.760;2022-12-01T03:40:48;41.47;;;20.10;;
20671;SDS011;10495;50.922;4.760;2022-12-01T03:43:18;40.00;;;20.33;;
20671;SDS011;10495;50.922;4.760;2022-12-01T03:48:20;42.07;;;19.90;;
20671;SDS011;10495;50.922;4.760;2022-12-01T03:54:01;38.77;;;19.73;;
20671;SDS011;10495;50.922;4.760;2022-12-01T03:56:31;36.53;;;20.10;;
20671;SDS011;10495;50.922;4.760;2022-12-01T03:59:02;40.50;;;19.03;;
20671;SDS011;10495;50.922;4.760;2022-12-01T04:01:30;39.23;;;20.37;;
20671;SDS011;10495;50.922;4.760;2022-12-01T04:04:04;45.80;;;20.77;;
20671;SDS011;10495;50.922;4.760;2022-12-01T04:06:32;42.93;;;20.90;;
20671;SDS011;10495;50.922;4.760;2022-12-01T04:08:58;43.40;;;19.80;;
20671;SDS011;10495;50.922;4.760;2022-12-01T04:11:23;42.33;;;20.90;;
20671;SDS011;10495;50.922;4.760;2022-12-01T04:14:07;40.40;;;19.40;;
20671;SDS011;10495;50.922;4.760;2022-12-01T04:16:33;39.63;;;19.67;;
20671;SDS011;10495;50.922;4.760;2022-12-01T04:18:58;40.97;;;19.83;;
20671;SDS011;10495;50.922;4.760;2022-12-01T04:21:24;41.77;;;19.60;;
20671;SDS011;10495;50.922;4.760;2022-12-01T04:23:49;44.80;;;21.30;;
20671;SDS011;10495;50.922;4.760;2022-12-01T04:26:24;47.87;;;21.87;;
20671;SDS011;10495;50.922;4.760;2022-12-01T04:28:50;49.13;;;20.97;;
20671;SDS011;10495;50.922;4.760;2022-12-01T04:31:16;43.33;;;21.40;;
20671;SDS011;10495;50.922;4.760;2022-12-01T04:33:41;42.73;;;20.97;;
20671;SDS011;10495;50.922;4.760;2022-12-01T04:36:07;44.60;;;19.50;;
20671;SDS011;10495;50.922;4.760;2022-12-01T04:38:33;40.87;;;18.90;;
20671;SDS011;10495;50.922;4.760;2022-12-01T04:41:01;40.70;;;18.70;;
20671;SDS011;10495;50.922;4.760;2022-12-01T04:43:36;46.90;;;21.60;;
20671;SDS011;10495;50.922;4.760;2022-12-01T04:46:02;46.00;;;20.40;;
20671;SDS011;10495;50.922;4.760;2022-12-01T04:48:28;41.20;;;20.10;;
20671;SDS011;10495;50.922;4.760;2022-12-01T04:50:54;47.47;;;21.40;;
20671;SDS011;10495;50.922;4.760;2022-12-01T04:53:19;49.70;;;21.73;;
20671;SDS011;10495;50.922;4.760;2022-12-01T04:55:45;48.47;;;22.77;;
20671;SDS011;10495;50.922;4.760;2022-12-01T04:58:11;50.87;;;22.17;;
20671;SDS011;10495;50.922;4.760;2022-12-01T05:00:37;48.93;;;22.97;;
20671;SDS011;10495;50.922;4.760;2022-12-01T05:03:02;45.53;;;22.20;;
20671;SDS011;10495;50.922;4.760;2022-12-01T05:05:29;49.87;;;22.00;;
20671;SDS011;10495;50.922;4.760;2022-12-01T05:07:57;48.47;;;22.10;;
20671;SDS011;10495;50.922;4.760;2022-12-01T05:10:23;44.87;;;21.67;;
20671;SDS011;10495;50.922;4.760;2022-12-01T05:12:49;50.07;;;21.77;;
20671;SDS011;10495;50.922;4.760;2022-12-01T05:15:15;58.03;;;23.27;;
20671;SDS011;10495;50.922;4.760;2022-12-01T05:17:41;42.63;;;21.40;;
20671;SDS011;10495;50.922;4.760;2022-12-01T05:20:06;56.37;;;22.33;;
20671;SDS011;10495;50.922;4.760;2022-12-01T05:22:51;54.43;;;22.80;;
20671;SDS011;10495;50.922;4.760;2022-12-01T05:25:17;47.80;;;20.63;;
20671;SDS011;10495;50.922;4.760;2022-12-01T05:27:43;45.37;;;20.33;;
20671;SDS011;10495;50.922;4.760;2022-12-01T05:30:09;45.23;;;21.97;;
20671;SDS011;10495;50.922;4.760;2022-12-01T05:32:35;44.60;;;21.43;;
20671;SDS011;10495;50.922;4.760;2022-12-01T05:35:00;52.47;;;21.53;;
20671;SDS011;10495;50.922;4.760;2022-12-01T05:37:26;54.23;;;22.90;;
20671;SDS011;10495;50.922;4.760;2022-12-01T05:39:57;46.40;;;21.70;;
20671;SDS011;10495;50.922;4.760;2022-12-01T05:42:22;49.83;;;21.77;;
20671;SDS011;10495;50.922;4.760;2022-12-01T05:44:48;53.10;;;23.30;;
20671;SDS011;10495;50.922;4.760;2022-12-01T05:47:14;53.77;;;21.77;;
20671;SDS011;10495;50.922;4.760;2022-12-01T05:49:40;44.40;;;21.37;;
20671;SDS011;10495;50.922;4.760;2022-12-01T05:52:05;44.70;;;20.27;;
20671;SDS011;10495;50.922;4.760;2022-12-01T05:54:31;44.13;;;19.77;;
20671;SDS011;10495;50.922;4.760;2022-12-01T05:56:56;45.67;;;20.73;;
20671;SDS011;10495;50.922;4.760;2022-12-01T05:59:22;39.27;;;19.67;;
20671;SDS011;10495;50.922;4.760;2022-12-01T06:01:48;56.73;;;23.50;;
20671;SDS011;10495;50.922;4.760;2022-12-01T06:04:13;47.33;;;21.17;;
20671;SDS011;10495;50.922;4.760;2022-12-01T06:06:39;41.03;;;19.93;;
20671;SDS011;10495;50.922;4.760;2022-12-01T06:09:04;44.57;;;21.17;;
20671;SDS011;10495;50.922;4.760;2022-12-01T06:11:30;47.20;;;21.23;;
20671;SDS011;10495;50.922;4.760;2022-12-01T06:13:56;54.90;;;21.80;;
20671;SDS011;10495;50.922;4.760;2022-12-01T06:16:21;47.80;;;21.57;;
20671;SDS011;10495;50.922;4.760;2022-12-01T06:18:47;49.60;;;22.17;;
20671;SDS011;10495;50.922;4.760;2022-12-01T06:21:12;46.40;;;20.50;;
20671;SDS011;10495;50.922;4.760;2022-12-01T06:23:38;52.50;;;21.23;;
20671;SDS011;10495;50.922;4.760;2022-12-01T06:26:03;50.70;;;21.57;;
20671;SDS011;10495;50.922;4.760;2022-12-01T06:28:29;52.87;;;22.80;;
20671;SDS011;10495;50.922;4.760;2022-12-01T06:30:55;46.70;;;21.73;;
20671;SDS011;10495;50.922;4.760;2022-12-01T06:33:20;47.23;;;22.03;;
20671;SDS011;10495;50.922;4.760;2022-12-01T06:35:46;46.67;;;22.47;;
20671;SDS011;10495;50.922;4.760;2022-12-01T06:38:11;48.50;;;21.63;;
20671;SDS011;10495;50.922;4.760;2022-12-01T06:40:37;46.67;;;20.67;;
20671;SDS011;10495;50.922;4.760;2022-12-01T06:43:02;45.00;;;22.17;;
20671;SDS011;10495;50.922;4.760;2022-12-01T06:45:28;51.57;;;21.60;;
20671;SDS011;10495;50.922;4.760;2022-12-01T06:47:55;39.23;;;19.20;;
20671;SDS011;10495;50.922;4.760;2022-12-01T06:50:21;48.53;;;21.33;;
20671;SDS011;10495;50.922;4.760;2022-12-01T06:52:47;44.80;;;21.03;;
20671;SDS011;10495;50.922;4.760;2022-12-01T06:55:13;46.60;;;20.40;;
20671;SDS011;10495;50.922;4.760;2022-12-01T06:57:39;48.80;;;21.40;;
20671;SDS011;10495;50.922;4.760;2022-12-01T07:00:05;42.40;;;19.83;;
20671;SDS011;10495;50.922;4.760;2022-12-01T07:02:32;48.57;;;21.77;;
20671;SDS011;10495;50.922;4.760;2022-12-01T07:04:58;39.00;;;19.37;;
20671;SDS011;10495;50.922;4.760;2022-12-01T07:07:24;42.57;;;21.33;;
20671;SDS011;10495;50.922;4.760;2022-12-01T07:09:49;41.57;;;19.87;;
20671;SDS011;10495;50.922;4.760;2022-12-01T07:12:15;46.50;;;20.60;;
20671;SDS011;10495;50.922;4.760;2022-12-01T07:14:40;44.07;;;21.03;;
20671;SDS011;10495;50.922;4.760;2022-12-01T07:17:06;45.57;;;21.10;;
20671;SDS011;10495;50.922;4.760;2022-12-01T07:19:33;50.10;;;22.17;;
20671;SDS011;10495;50.922;4.760;2022-12-01T07:21:59;43.30;;;20.07;;
20671;SDS011;10495;50.922;4.760;2022-12-01T07:24:25;37.93;;;19.10;;
20671;SDS011;10495;50.922;4.760;2022-12-01T07:26:50;44.30;;;19.87;;
20671;SDS011;10495;50.922;4.760;2022-12-01T07:29:16;44.57;;;20.50;;
20671;SDS011;10495;50.922;4.760;2022-12-01T07:31:41;40.80;;;19.10;;
20671;SDS011;10495;50.922;4.760;2022-12-01T07:34:09;41.90;;;21.00;;
20671;SDS011;10495;50.922;4.760;2022-12-01T07:36:37;47.93;;;22.20;;
20671;SDS011;10495;50.922;4.760;2022-12-01T07:39:03;44.67;;;21.90;;
20671;SDS011;10495;50.922;4.760;2022-12-01T07:41:30;43.27;;;21.00;;
20671;SDS011;10495;50.922;4.760;2022-12-01T07:43:56;42.07;;;20.53;;
20671;SDS011;10495;50.922;4.760;2022-12-01T07:46:23;50.67;;;20.10;;
20671;SDS011;10495;50.922;4.760;2022-12-01T07:48:50;44.03;;;20.60;;
20671;SDS011;10495;50.922;4.760;2022-12-01T07:51:17;39.93;;;19.17;;
20671;SDS011;10495;50.922;4.760;2022-12-01T07:53:44;42.27;;;21.00;;
20671;SDS011;10495;50.922;4.760;2022-12-01T07:56:11;43.03;;;19.27;;
20671;SDS011;10495;50.922;4.760;2022-12-01T07:58:36;40.30;;;19.90;;
20671;SDS011;10495;50.922;4.760;2022-12-01T08:01:06;41.27;;;20.70;;
20671;SDS011;10495;50.922;4.760;2022-12-01T08:03:40;39.37;;;19.80;;
20671;SDS011;10495;50.922;4.760;2022-12-01T08:06:06;42.10;;;19.97;;
20671;SDS011;10495;50.922;4.760;2022-12-01T08:08:33;40.60;;;20.67;;
20671;SDS011;10495;50.922;4.760;2022-12-01T08:11:00;41.50;;;21.30;;
20671;SDS011;10495;50.922;4.760;2022-12-01T08:13:28;41.63;;;19.17;;
20671;SDS011;10495;50.922;4.760;2022-12-01T08:15:54;42.77;;;21.60;;
20671;SDS011;10495;50.922;4.760;2022-12-01T08:18:20;45.03;;;21.10;;
20671;SDS011;10495;50.922;4.760;2022-12-01T08:20:46;38.47;;;18.67;;
20671;SDS011;10495;50.922;4.760;2022-12-01T08:23:12;34.80;;;19.27;;
20671;SDS011;10495;50.922;4.760;2022-12-01T08:25:38;34.00;;;19.00;;
20671;SDS011;10495;50.922;4.760;2022-12-01T08:28:03;41.17;;;18.73;;
20671;SDS011;10495;50.922;4.760;2022-12-01T08:30:29;39.87;;;19.83;;
20671;SDS011;10495;50.922;4.760;2022-12-01T08:32:55;37.10;;;20.77;;
20671;SDS011;10495;50.922;4.760;2022-12-01T08:35:21;37.17;;;19.77;;
20671;SDS011;10495;50.922;4.760;2022-12-01T08:37:50;39.67;;;18.87;;
20671;SDS011;10495;50.922;4.760;2022-12-01T08:40:17;42.90;;;19.03;;
20671;SDS011;10495;50.922;4.760;2022-12-01T08:42:43;38.10;;;19.47;;
20671;SDS011;10495;50.922;4.760;2022-12-01T08:45:09;40.70;;;20.13;;
20671;SDS011;10495;50.922;4.760;2022-12-01T08:47:35;39.73;;;19.90;;
20671;SDS011;10495;50.922;4.760;2022-12-01T08:50:00;41.77;;;20.77;;
20671;SDS011;10495;50.922;4.760;2022-12-01T08:52:30;37.30;;;19.37;;
20671;SDS011;10495;50.922;4.760;2022-12-01T08:54:56;35.90;;;18.90;;
20671;SDS011;10495;50.922;4.760;2022-12-01T08:57:22;34.10;;;18.83;;
20671;SDS011;10495;50.922;4.760;2022-12-01T08:59:47;38.27;;;19.73;;
20671;SDS011;10495;50.922;4.760;2022-12-01T09:02:14;35.37;;;18.10;;
20671;SDS011;10495;50.922;4.760;2022-12-01T09:04:42;34.87;;;17.33;;
20671;SDS011;10495;50.922;4.760;2022-12-01T09:07:08;34.17;;;17.37;;
20671;SDS011;10495;50.922;4.760;2022-12-01T09:09:35;39.57;;;18.60;;
20671;SDS011;10495;50.922;4.760;2022-12-01T09:12:01;36.57;;;19.20;;
20671;SDS011;10495;50.922;4.760;2022-12-01T09:14:27;37.87;;;19.07;;
20671;SDS011;10495;50.922;4.760;2022-12-01T09:16:52;36.33;;;18.77;;
20671;SDS011;10495;50.922;4.760;2022-12-01T09:19:18;36.87;;;18.53;;
20671;SDS011;10495;50.922;4.760;2022-12-01T09:21:45;35.50;;;18.93;;
20671;SDS011;10495;50.922;4.760;2022-12-01T09:24:11;38.87;;;18.67;;
20671;SDS011;10495;50.922;4.760;2022-12-01T09:26:38;37.63;;;18.47;;
20671;SDS011;10495;50.922;4.760;2022-12-01T09:29:06;38.43;;;18.57;;
20671;SDS011;10495;50.922;4.760;2022-12-01T09:31:33;37.97;;;19.13;;
20671;SDS011;10495;50.922;4.760;2022-12-01T09:34:00;40.50;;;19.50;;
20671;SDS011;10495;50.922;4.760;2022-12-01T09:36:31;37.47;;;19.23;;
20671;SDS011;10495;50.922;4.760;2022-12-01T09:38:58;41.47;;;19.97;;
20671;SDS011;10495;50.922;4.760;2022-12-01T09:41:38;37.80;;;19.23;;
20671;SDS011;10495;50.922;4.760;2022-12-01T09:49:19;34.20;;;18.70;;
20671;SDS011;10495;50.922;4.760;2022-12-01T09:51:47;35.77;;;19.37;;
20671;SDS011;10495;50.922;4.760;2022-12-01T09:54:14;35.27;;;18.57;;
20671;SDS011;10495;50.922;4.760;2022-12-01T09:56:41;35.00;;;18.33;;
20671;SDS011;10495;50.922;4.760;2022-12-01T09:59:14;33.93;;;17.17;;
20671;SDS011;10495;50.922;4.760;2022-12-01T10:01:44;34.70;;;18.07;;
20671;SDS011;10495;50.922;4.760;2022-12-01T10:04:17;32.27;;;17.20;;
20671;SDS011;10495;50.922;4.760;2022-12-01T10:12:22;33.30;;;18.67;;
20671;SDS011;10495;50.922;4.760;2022-12-01T10:14:55;29.87;;;16.53;;
20671;SDS011;10495;50.922;4.760;2022-12-01T10:26:12;31.20;;;16.20;;
20671;SDS011;10495;50.922;4.760;2022-12-01T10:36:39;25.63;;;16.00;;
20671;SDS011;10495;50.922;4.760;2022-12-01T10:39:05;28.17;;;15.67;;
20671;SDS011;10495;50.922;4.760;2022-12-01T10:41:37;29.27;;;16.63;;
20671;SDS011;10495;50.922;4.760;2022-12-01T10:44:04;24.93;;;14.97;;
20671;SDS011;10495;50.922;4.760;2022-12-01T10:46:44;27.30;;;15.30;;
20671;SDS011;10495;50.922;4.760;2022-12-01T10:49:18;29.73;;;16.27;;
20671;SDS011;10495;50.922;4.760;2022-12-01T10:51:45;32.27;;;17.10;;
20671;SDS011;10495;50.922;4.760;2022-12-01T10:54:18;30.53;;;18.07;;
20671;SDS011;10495;50.922;4.760;2022-12-01T10:56:46;29.53;;;17.03;;
20671;SDS011;10495;50.922;4.760;2022-12-01T11:01:50;33.23;;;17.57;;
20671;SDS011;10495;50.922;4.760;2022-12-01T11:04:28;27.77;;;16.23;;
20671;SDS011;10495;50.922;4.760;2022-12-01T11:07:00;27.40;;;16.80;;
20671;SDS011;10495;50.922;4.760;2022-12-01T11:09:28;32.57;;;17.07;;
20671;SDS011;10495;50.922;4.760;2022-12-01T11:12:01;27.53;;;16.10;;
20671;SDS011;10495;50.922;4.760;2022-12-01T11:19:52;30.70;;;16.57;;
20671;SDS011;10495;50.922;4.760;2022-12-01T11:22:21;29.10;;;15.47;;
20671;SDS011;10495;50.922;4.760;2022-12-01T11:27:20;28.37;;;17.10;;
20671;SDS011;10495;50.922;4.760;2022-12-01T11:30:01;28.63;;;15.93;;
20671;SDS011;10495;50.922;4.760;2022-12-01T11:32:52;29.40;;;15.53;;
20671;SDS011;10495;50.922;4.760;2022-12-01T11:35:20;25.43;;;14.60;;
20671;SDS011;10495;50.922;4.760;2022-12-01T11:37:52;26.43;;;15.47;;
20671;SDS011;10495;50.922;4.760;2022-12-01T11:40:22;31.00;;;16.70;;
20671;SDS011;10495;50.922;4.760;2022-12-01T11:42:54;26.67;;;15.67;;
20671;SDS011;10495;50.922;4.760;2022-12-01T11:45:25;24.70;;;14.27;;
20671;SDS011;10495;50.922;4.760;2022-12-01T11:47:57;27.93;;;15.10;;
20671;SDS011;10495;50.922;4.760;2022-12-01T11:50:26;26.73;;;15.23;;
20671;SDS011;10495;50.922;4.760;2022-12-01T11:52:53;25.10;;;16.30;;
20671;SDS011;10495;50.922;4.760;2022-12-01T11:55:20;28.50;;;16.37;;
20671;SDS011;10495;50.922;4.760;2022-12-01T11:57:48;24.77;;;14.23;;
20671;SDS011;10495;50.922;4.760;2022-12-01T12:02:58;28.87;;;15.97;;
20671;SDS011;10495;50.922;4.760;2022-12-01T12:25:41;29.90;;;16.93;;
20671;SDS011;10495;50.922;4.760;2022-12-01T12:28:48;26.23;;;15.53;;
20671;SDS011;10495;50.922;4.760;2022-12-01T12:31:56;25.67;;;15.43;;
20671;SDS011;10495;50.922;4.760;2022-12-01T12:34:34;26.70;;;15.07;;
20671;SDS011;10495;50.922;4.760;2022-12-01T12:53:02;28.60;;;16.47;;
20671;SDS011;10495;50.922;4.760;2022-12-01T12:55:41;30.53;;;16.30;;
20671;SDS011;10495;50.922;4.760;2022-12-01T12:58:17;28.30;;;16.40;;
20671;SDS011;10495;50.922;4.760;2022-12-01T13:00:58;29.43;;;15.80;;
20671;SDS011;10495;50.922;4.760;2022-12-01T13:06:07;29.83;;;16.93;;
20671;SDS011;10495;50.922;4.760;2022-12-01T13:08:39;31.23;;;16.67;;
20671;SDS011;10495;50.922;4.760;2022-12-01T13:11:27;31.50;;;17.47;;
20671;SDS011;10495;50.922;4.760;2022-12-01T13:16:56;32.23;;;17.00;;
20671;SDS011;10495;50.922;4.760;2022-12-01T13:19:31;30.77;;;16.03;;
20671;SDS011;10495;50.922;4.760;2022-12-01T13:22:01;33.20;;;17.00;;
20671;SDS011;10495;50.922;4.760;2022-12-01T13:24:31;29.67;;;18.30;;
20671;SDS011;10495;50.922;4.760;2022-12-01T13:27:02;35.43;;;17.77;;
20671;SDS011;10495;50.922;4.760;2022-12-01T13:29:35;31.30;;;17.07;;
20671;SDS011;10495;50.922;4.760;2022-12-01T13:32:03;28.80;;;16.57;;
20671;SDS011;10495;50.922;4.760;2022-12-01T13:34:32;31.23;;;17.80;;
20671;SDS011;10495;50.922;4.760;2022-12-01T13:37:10;32.40;;;17.17;;
20671;SDS011;10495;50.922;4.760;2022-12-01T13:39:36;33.17;;;17.83;;
20671;SDS011;10495;50.922;4.760;2022-12-01T13:42:05;32.27;;;17.80;;
20671;SDS011;10495;50.922;4.760;2022-12-01T13:44:49;34.67;;;16.90;;
20671;SDS011;10495;50.922;4.760;2022-12-01T14:06:47;29.53;;;15.80;;
20671;SDS011;10495;50.922;4.760;2022-12-01T14:11:55;34.20;;;17.83;;
20671;SDS011;10495;50.922;4.760;2022-12-01T14:14:26;29.30;;;16.07;;
20671;SDS011;10495;50.922;4.760;2022-12-01T14:16:57;28.30;;;16.77;;
20671;SDS011;10495;50.922;4.760;2022-12-01T14:19:33;33.90;;;17.43;;
20671;SDS011;10495;50.922;4.760;2022-12-01T14:22:00;35.00;;;16.60;;
20671;SDS011;10495;50.922;4.760;2022-12-01T14:24:38;29.80;;;16.77;;
20671;SDS011;10495;50.922;4.760;2022-12-01T14:27:07;32.37;;;16.20;;
20671;SDS011;10495;50.922;4.760;2022-12-01T14:29:39;32.27;;;17.57;;
20671;SDS011;10495;50.922;4.760;2022-12-01T14:34:34;30.17;;;16.90;;
20671;SDS011;10495;50.922;4.760;2022-12-01T14:37:11;26.00;;;15.93;;
20671;SDS011;10495;50.922;4.760;2022-12-01T14:39:43;28.77;;;16.20;;
20671;SDS011;10495;50.922;4.760;2022-12-01T14:42:35;30.20;;;17.37;;
20671;SDS011;10495;50.922;4.760;2022-12-01T14:45:31;32.67;;;17.70;;
20671;SDS011;10495;50.922;4.760;2022-12-01T14:48:02;35.73;;;20.03;;
20671;SDS011;10495;50.922;4.760;2022-12-01T14:50:37;32.23;;;17.83;;
20671;SDS011;10495;50.922;4.760;2022-12-01T14:53:14;34.43;;;19.37;;
20671;SDS011;10495;50.922;4.760;2022-12-01T14:55:55;31.50;;;18.27;;
20671;SDS011;10495;50.922;4.760;2022-12-01T14:58:34;33.77;;;16.93;;
20671;SDS011;10495;50.922;4.760;2022-12-01T15:03:36;31.43;;;17.27;;
20671;SDS011;10495;50.922;4.760;2022-12-01T15:06:07;32.50;;;17.83;;
20671;SDS011;10495;50.922;4.760;2022-12-01T15:08:35;35.00;;;18.30;;
20671;SDS011;10495;50.922;4.760;2022-12-01T15:11:03;32.60;;;17.40;;
20671;SDS011;10495;50.922;4.760;2022-12-01T15:16:17;31.27;;;17.67;;
20671;SDS011;10495;50.922;4.760;2022-12-01T15:18:44;34.17;;;17.53;;
20671;SDS011;10495;50.922;4.760;2022-12-01T15:21:11;32.93;;;18.57;;
20671;SDS011;10495;50.922;4.760;2022-12-01T15:26:24;34.63;;;17.40;;
20671;SDS011;10495;50.922;4.760;2022-12-01T15:29:10;34.77;;;18.97;;
20671;SDS011;10495;50.922;4.760;2022-12-01T15:31:43;36.00;;;19.13;;
20671;SDS011;10495;50.922;4.760;2022-12-01T15:34:13;35.57;;;18.93;;
20671;SDS011;10495;50.922;4.760;2022-12-01T15:36:51;33.57;;;17.33;;
20671;SDS011;10495;50.922;4.760;2022-12-01T15:39:24;34.27;;;18.23;;
20671;SDS011;10495;50.922;4.760;2022-12-01T15:41:54;31.03;;;17.53;;
20671;SDS011;10495;50.922;4.760;2022-12-01T15:44:24;28.77;;;17.30;;
20671;SDS011;10495;50.922;4.760;2022-12-01T15:46:52;33.73;;;17.97;;
20671;SDS011;10495;50.922;4.760;2022-12-01T15:49:28;36.70;;;18.40;;
20671;SDS011;10495;50.922;4.760;2022-12-01T15:52:08;36.10;;;18.77;;
20671;SDS011;10495;50.922;4.760;2022-12-01T15:54:35;34.67;;;18.27;;
20671;SDS011;10495;50.922;4.760;2022-12-01T15:57:01;32.77;;;18.50;;
20671;SDS011;10495;50.922;4.760;2022-12-01T16:01:56;36.33;;;20.70;;
20671;SDS011;10495;50.922;4.760;2022-12-01T16:04:24;32.97;;;19.10;;
20671;SDS011;10495;50.922;4.760;2022-12-01T16:06:55;34.93;;;18.90;;
20671;SDS011;10495;50.922;4.760;2022-12-01T16:17:26;37.23;;;18.57;;
20671;SDS011;10495;50.922;4.760;2022-12-01T16:23:10;33.13;;;17.70;;
20671;SDS011;10495;50.922;4.760;2022-12-01T16:25:43;37.20;;;17.93;;
20671;SDS011;10495;50.922;4.760;2022-12-01T16:28:17;31.60;;;17.80;;
20671;SDS011;10495;50.922;4.760;2022-12-01T16:30:47;33.57;;;18.03;;
20671;SDS011;10495;50.922;4.760;2022-12-01T16:33:15;35.30;;;19.43;;
20671;SDS011;10495;50.922;4.760;2022-12-01T16:35:46;30.53;;;17.43;;
20671;SDS011;10495;50.922;4.760;2022-12-01T16:38:13;30.87;;;16.93;;
20671;SDS011;10495;50.922;4.760;2022-12-01T16:40:47;37.07;;;20.57;;
20671;SDS011;10495;50.922;4.760;2022-12-01T16:43:15;31.63;;;18.73;;
20671;SDS011;10495;50.922;4.760;2022-12-01T16:45:43;35.47;;;18.33;;
20671;SDS011;10495;50.922;4.760;2022-12-01T16:48:09;43.10;;;18.50;;
20671;SDS011;10495;50.922;4.760;2022-12-01T16:50:35;38.57;;;18.60;;
20671;SDS011;10495;50.922;4.760;2022-12-01T16:53:01;39.57;;;20.27;;
20671;SDS011;10495;50.922;4.760;2022-12-01T16:55:49;38.07;;;19.67;;
20671;SDS011;10495;50.922;4.760;2022-12-01T16:58:16;43.97;;;20.60;;
20671;SDS011;10495;50.922;4.760;2022-12-01T17:00:42;38.30;;;20.10;;
20671;SDS011;10495;50.922;4.760;2022-12-01T17:03:09;35.97;;;19.10;;
20671;SDS011;10495;50.922;4.760;2022-12-01T17:05:36;37.60;;;19.73;;
20671;SDS011;10495;50.922;4.760;2022-12-01T17:08:01;38.20;;;18.47;;
20671;SDS011;10495;50.922;4.760;2022-12-01T17:10:28;38.73;;;19.00;;
20671;SDS011;10495;50.922;4.760;2022-12-01T17:12:53;34.93;;;19.00;;
20671;SDS011;10495;50.922;4.760;2022-12-01T17:15:19;44.00;;;21.50;;